createdAt,value
2023-05-05T00:00:16.974Z,3.86
2023-05-05T00:03:23.292Z,3.90
2023-05-05T00:06:29.107Z,3.89
2023-05-05T00:09:35.816Z,3.94
2023-05-05T00:12:41.256Z,3.80
2023-05-05T00:15:47.228Z,3.74
2023-05-05T00:18:52.345Z,3.74
2023-05-05T00:21:57.515Z,3.66
2023-05-05T00:25:04.935Z,3.70
2023-05-05T00:28:10.132Z,3.68
2023-05-05T00:31:17.661Z,3.70
2023-05-05T00:34:22.718Z,3.62
2023-05-05T00:37:27.723Z,3.48
2023-05-05T00:40:34.406Z,3.61
2023-05-05T00:43:39.625Z,3.56
2023-05-05T00:46:45.312Z,3.65
2023-05-05T00:49:51.093Z,3.61
2023-05-05T00:52:57.606Z,3.61
2023-05-05T00:56:04.408Z,3.72
2023-05-05T00:59:09.422Z,3.65
2023-05-05T01:02:14.574Z,3.64
2023-05-05T01:05:20.092Z,3.56
2023-05-05T01:08:35.006Z,3.55
2023-05-05T01:11:46.619Z,3.52
2023-05-05T01:14:58.060Z,3.58
2023-05-05T01:18:09.899Z,3.57
2023-05-05T01:21:17.177Z,3.52
2023-05-05T01:24:49.965Z,3.61
2023-05-05T01:28:12.872Z,3.60
2023-05-05T01:31:51.677Z,3.52
2023-05-05T01:35:01.884Z,3.53
2023-05-05T01:38:13.310Z,3.49
2023-05-05T01:41:21.131Z,3.43
2023-05-05T01:44:26.917Z,3.35
2023-05-05T01:47:34.140Z,3.31
2023-05-05T01:50:39.917Z,3.35
2023-05-05T01:53:47.313Z,3.31
2023-05-05T01:56:52.885Z,3.25
2023-05-05T01:59:59.027Z,3.29
2023-05-05T02:03:06.658Z,3.26
2023-05-05T02:06:12.869Z,3.27
2023-05-05T02:09:18.645Z,3.22
2023-05-05T02:12:25.292Z,3.28
2023-05-05T02:15:31.565Z,3.32
2023-05-05T02:18:39.163Z,3.25
2023-05-05T02:21:44.294Z,3.20
2023-05-05T02:24:49.723Z,3.00
2023-05-05T02:27:59.744Z,3.10
2023-05-05T02:31:05.109Z,3.19
2023-05-05T02:34:12.439Z,3.26
2023-05-05T02:37:20.301Z,3.11
2023-05-05T02:40:30.076Z,2.86
2023-05-05T02:43:35.643Z,2.87
2023-05-05T02:46:41.027Z,2.77
2023-05-05T02:49:48.119Z,2.81
2023-05-05T02:52:53.161Z,2.83
2023-05-05T02:56:07.604Z,2.77
2023-05-05T02:59:22.204Z,2.91
2023-05-05T03:02:39.078Z,2.98
2023-05-05T03:05:52.788Z,2.99
2023-05-05T03:09:03.765Z,2.80
2023-05-05T03:12:12.048Z,2.72
2023-05-05T03:15:33.790Z,2.95
2023-05-05T03:18:40.525Z,2.98
2023-05-05T03:21:47.168Z,3.00
2023-05-05T03:24:52.568Z,3.01
2023-05-05T03:28:01.468Z,3.12
2023-05-05T03:31:07.063Z,3.15
2023-05-05T03:34:14.974Z,3.04
2023-05-05T03:37:25.704Z,3.00
2023-05-05T03:40:43.001Z,2.94
2023-05-05T03:43:51.981Z,2.77
2023-05-05T03:46:57.811Z,2.65
2023-05-05T03:50:03.766Z,2.74
2023-05-05T03:53:10.441Z,2.96
2023-05-05T03:56:16.434Z,3.03
2023-05-05T03:59:21.716Z,3.08
2023-05-05T04:02:27.154Z,2.86
2023-05-05T04:05:32.546Z,3.16
2023-05-05T04:08:39.153Z,3.22
2023-05-05T04:11:44.304Z,3.36
2023-05-05T04:14:50.163Z,3.26
2023-05-05T04:17:55.757Z,3.40
2023-05-05T04:21:01.123Z,3.43
2023-05-05T04:24:08.262Z,3.44
2023-05-05T04:27:13.691Z,3.41
2023-05-05T04:30:19.009Z,3.36
2023-05-05T04:33:24.498Z,3.46
2023-05-05T04:36:29.969Z,3.55
2023-05-05T04:39:36.453Z,3.64
2023-05-05T04:42:42.083Z,3.76
2023-05-05T04:45:54.735Z,3.79
2023-05-05T04:49:05.136Z,3.83
2023-05-05T04:52:12.916Z,3.87
2023-05-05T04:55:19.915Z,3.84
2023-05-05T04:58:25.081Z,3.95
2023-05-05T05:01:30.352Z,4.03
2023-05-05T05:04:35.547Z,4.20
2023-05-05T05:07:40.903Z,4.23
2023-05-05T05:10:47.369Z,4.20
2023-05-05T05:13:53.125Z,4.20
2023-05-05T05:16:58.303Z,4.32
2023-05-05T05:20:10.942Z,4.39
2023-05-05T05:23:16.703Z,4.38
2023-05-05T05:26:24.608Z,4.48
2023-05-05T05:29:30.121Z,4.54
2023-05-05T05:32:37.716Z,4.60
2023-05-05T05:35:43.941Z,4.61
2023-05-05T05:38:49.429Z,4.75
2023-05-05T05:41:56.095Z,4.75
2023-05-05T05:45:01.543Z,4.79
2023-05-05T05:48:07.819Z,4.96
2023-05-05T05:51:13.216Z,5.01
2023-05-05T05:54:18.841Z,5.09
2023-05-05T05:57:25.993Z,5.04
2023-05-05T06:00:31.121Z,5.33
2023-05-05T06:03:42.747Z,5.50
2023-05-05T06:06:47.652Z,5.45
2023-05-05T06:09:53.007Z,5.85
2023-05-05T06:12:59.705Z,6.01
2023-05-05T06:16:05.300Z,6.10
2023-05-05T06:19:11.235Z,6.19
2023-05-05T06:22:16.774Z,6.45
2023-05-05T06:25:22.752Z,6.60
2023-05-05T06:28:30.796Z,6.49
2023-05-05T06:31:36.293Z,6.46
2023-05-05T06:34:41.410Z,6.62
2023-05-05T06:37:46.800Z,6.53
2023-05-05T06:40:51.853Z,6.51
2023-05-05T06:43:59.651Z,6.46
2023-05-05T06:47:05.169Z,6.71
2023-05-05T06:50:11.339Z,6.81
2023-05-05T06:53:16.694Z,6.86
2023-05-05T06:56:22.073Z,6.79
2023-05-05T06:59:28.655Z,6.87
2023-05-05T07:02:33.978Z,6.97
2023-05-05T07:05:39.376Z,7.08
2023-05-05T07:08:44.604Z,6.96
2023-05-05T07:11:49.738Z,7.00
2023-05-05T07:14:56.354Z,7.22
2023-05-05T07:18:01.846Z,7.13
2023-05-05T07:21:07.136Z,7.39
2023-05-05T07:24:12.317Z,7.41
2023-05-05T07:27:17.789Z,7.34
2023-05-05T07:30:26.029Z,7.38
2023-05-05T07:33:31.732Z,7.28
2023-05-05T07:36:36.824Z,7.02
2023-05-05T07:39:42.150Z,7.15
2023-05-05T07:42:48.537Z,7.27
2023-05-05T07:45:55.035Z,7.36
2023-05-05T07:49:00.448Z,7.44
2023-05-05T07:52:05.761Z,7.49
2023-05-05T07:55:12.629Z,7.44
2023-05-05T07:58:18.433Z,7.44
2023-05-05T08:01:25.097Z,7.48
2023-05-05T08:04:30.195Z,7.63
2023-05-05T08:07:36.590Z,7.66
2023-05-05T08:10:41.762Z,7.82
2023-05-05T08:13:46.956Z,7.72
2023-05-05T08:16:53.656Z,7.87
2023-05-05T08:19:58.899Z,8.02
2023-05-05T08:23:04.326Z,8.25
2023-05-05T08:26:09.696Z,8.23
2023-05-05T08:29:15.116Z,8.23
2023-05-05T08:32:21.804Z,8.26
2023-05-05T08:35:27.056Z,8.09
2023-05-05T08:38:32.244Z,8.13
2023-05-05T08:41:37.437Z,8.30
2023-05-05T08:44:42.619Z,8.30
2023-05-05T08:47:49.149Z,8.13
2023-05-05T08:50:57.995Z,8.21
2023-05-05T08:54:05.296Z,8.15
2023-05-05T08:57:12.231Z,8.22
2023-05-05T09:00:20.654Z,8.26
2023-05-05T09:03:28.134Z,8.11
2023-05-05T09:06:34.365Z,8.16
2023-05-05T09:09:40.399Z,8.39
2023-05-05T09:12:45.624Z,8.19
2023-05-05T09:15:50.754Z,8.19
2023-05-05T09:19:04.767Z,8.37
2023-05-05T09:22:11.510Z,8.14
2023-05-05T09:25:17.978Z,8.17
2023-05-05T09:28:23.165Z,8.10
2023-05-05T09:31:29.060Z,7.92
2023-05-05T09:34:36.703Z,8.23
2023-05-05T09:37:41.965Z,8.23
2023-05-05T09:40:48.734Z,8.18
2023-05-05T09:43:54.147Z,8.27
2023-05-05T09:46:59.316Z,8.40
2023-05-05T09:50:07.322Z,8.47
2023-05-05T09:53:13.805Z,8.57
2023-05-05T09:56:18.907Z,8.63
2023-05-05T09:59:24.939Z,8.72
2023-05-05T10:02:34.252Z,8.75
2023-05-05T10:05:50.593Z,8.53
2023-05-05T10:09:03.152Z,8.47
2023-05-05T10:12:08.686Z,8.55
2023-05-05T10:15:14.405Z,8.58
2023-05-05T10:18:23.375Z,8.56
2023-05-05T10:21:34.277Z,8.65
2023-05-05T10:24:42.315Z,8.79
2023-05-05T10:27:51.766Z,8.71
2023-05-05T10:30:59.532Z,8.92
2023-05-05T10:34:07.772Z,8.91
2023-05-05T10:37:16.709Z,8.82
2023-05-05T10:40:24.094Z,8.98
2023-05-05T10:43:30.859Z,8.86
2023-05-05T10:46:36.177Z,8.88
2023-05-05T10:49:44.474Z,8.88
2023-05-05T10:52:59.894Z,8.82
2023-05-05T10:56:11.845Z,8.76
2023-05-05T10:59:42.432Z,8.76
2023-05-05T11:02:47.606Z,8.68
2023-05-05T11:06:13.738Z,8.69
2023-05-05T11:09:30.640Z,8.71
2023-05-05T11:13:14.379Z,8.73
2023-05-05T11:16:45.584Z,8.93
2023-05-05T11:19:52.324Z,8.92
2023-05-05T11:23:24.066Z,9.12
2023-05-05T11:26:51.306Z,9.26
2023-05-05T11:30:12.828Z,9.37
2023-05-05T11:33:28.520Z,9.53
2023-05-05T11:36:41.931Z,9.63
2023-05-05T11:39:55.610Z,9.29
2023-05-05T11:43:08.556Z,9.59
2023-05-05T11:46:14.958Z,9.64
2023-05-05T11:49:28.391Z,9.96
2023-05-05T11:52:34.832Z,10.00
2023-05-05T11:55:40.076Z,10.04
2023-05-05T11:58:47.239Z,9.59
2023-05-05T12:01:52.427Z,9.65
2023-05-05T12:04:58.277Z,9.66
2023-05-05T12:08:03.655Z,9.59
2023-05-05T12:11:10.459Z,9.65
2023-05-05T12:14:17.458Z,9.04
2023-05-05T12:17:23.451Z,9.43
2023-05-05T12:20:33.157Z,9.54
2023-05-05T12:23:40.360Z,9.33
2023-05-05T12:26:45.588Z,9.53
2023-05-05T12:29:52.216Z,9.46
2023-05-05T12:33:04.013Z,9.60
2023-05-05T12:36:10.459Z,9.47
2023-05-05T12:39:15.787Z,9.89
2023-05-05T12:42:21.248Z,9.75
2023-05-05T12:45:27.970Z,10.07
2023-05-05T12:48:33.439Z,9.41
2023-05-05T12:51:39.732Z,10.01
2023-05-05T12:54:55.463Z,10.29
2023-05-05T12:58:01.530Z,10.30
2023-05-05T13:01:12.510Z,10.23
2023-05-05T13:04:17.925Z,9.87
2023-05-05T13:07:23.904Z,9.67
2023-05-05T13:10:31.315Z,10.04
2023-05-05T13:13:37.449Z,10.07
2023-05-05T13:16:44.036Z,11.00
2023-05-05T13:19:49.100Z,10.54
2023-05-05T13:22:54.641Z,10.31
2023-05-05T13:25:59.717Z,10.65
2023-05-05T13:29:04.932Z,10.33
2023-05-05T13:32:11.393Z,10.31
2023-05-05T13:35:17.186Z,9.93
2023-05-05T13:38:22.427Z,10.23
2023-05-05T13:41:28.172Z,9.64
2023-05-05T13:44:33.596Z,9.47
2023-05-05T13:47:41.049Z,9.42
2023-05-05T13:50:46.291Z,9.68
2023-05-05T13:53:51.568Z,10.22
2023-05-05T13:56:56.645Z,10.51
2023-05-05T14:00:01.755Z,10.21
2023-05-05T14:03:08.453Z,10.13
2023-05-05T14:06:14.710Z,10.06
2023-05-05T14:09:19.777Z,9.79
2023-05-05T14:12:24.915Z,9.70
2023-05-05T14:15:30.070Z,9.63
2023-05-05T14:18:36.625Z,9.42
2023-05-05T14:21:41.640Z,9.47
2023-05-05T14:24:46.710Z,9.27
2023-05-05T14:27:52.904Z,9.18
2023-05-05T14:30:58.404Z,9.37
2023-05-05T14:34:04.897Z,9.48
2023-05-05T14:37:10.028Z,9.61
2023-05-05T14:40:15.309Z,9.56
2023-05-05T14:43:20.794Z,9.22
2023-05-05T14:46:26.473Z,9.51
2023-05-05T14:49:33.037Z,9.44
2023-05-05T14:52:39.361Z,9.58
2023-05-05T14:55:44.580Z,9.49
2023-05-05T14:58:49.647Z,9.52
2023-05-05T15:01:54.770Z,9.45
2023-05-05T15:05:01.295Z,9.45
2023-05-05T15:08:06.778Z,9.15
2023-05-05T15:11:12.288Z,9.08
2023-05-05T15:14:17.365Z,9.01
2023-05-05T15:17:22.615Z,9.08
2023-05-05T15:20:29.458Z,8.95
2023-05-05T15:23:34.861Z,8.96
2023-05-05T15:26:40.288Z,9.01
2023-05-05T15:29:45.315Z,8.99
2023-05-05T15:32:51.436Z,8.82
2023-05-05T15:36:00.439Z,8.89
2023-05-05T15:39:05.626Z,8.46
2023-05-05T15:42:13.782Z,8.64
2023-05-05T15:45:19.198Z,8.50
2023-05-05T15:48:24.823Z,8.46
2023-05-05T15:51:32.311Z,8.63
2023-05-05T15:54:37.524Z,8.61
2023-05-05T15:57:42.647Z,8.61
2023-05-05T16:00:47.817Z,8.34
2023-05-05T16:03:53.062Z,8.31
2023-05-05T16:06:59.773Z,8.28
2023-05-05T16:10:05.185Z,8.33
2023-05-05T16:13:10.284Z,8.28
2023-05-05T16:16:15.404Z,8.18
2023-05-05T16:19:20.920Z,8.09
2023-05-05T16:22:27.639Z,8.10
2023-05-05T16:25:32.607Z,8.19
2023-05-05T16:28:37.796Z,8.03
2023-05-05T16:31:43.114Z,7.85
2023-05-05T16:34:48.275Z,7.83
2023-05-05T16:37:55.130Z,7.73
2023-05-05T16:41:00.346Z,7.80
2023-05-05T16:44:05.649Z,7.84
2023-05-05T16:47:12.501Z,7.80
2023-05-05T16:50:17.819Z,7.69
2023-05-05T16:53:24.364Z,7.58
2023-05-05T16:56:29.425Z,7.57
2023-05-05T16:59:34.666Z,7.53
2023-05-05T17:02:41.171Z,7.55
2023-05-05T17:05:49.045Z,7.35
2023-05-05T17:08:56.418Z,7.37
2023-05-05T17:12:01.619Z,7.31
2023-05-05T17:15:08.551Z,7.39
2023-05-05T17:18:14.573Z,7.36
2023-05-05T17:21:19.735Z,7.37
2023-05-05T17:24:26.320Z,7.50
2023-05-05T17:27:31.458Z,7.56
2023-05-05T17:30:37.631Z,7.29
2023-05-05T17:33:42.688Z,7.43
2023-05-05T17:36:47.808Z,7.30
2023-05-05T17:39:54.329Z,7.04
2023-05-05T17:42:59.401Z,6.98
2023-05-05T17:46:04.843Z,7.08
2023-05-05T17:49:10.210Z,7.01
2023-05-05T17:52:15.554Z,6.93
2023-05-05T17:55:23.394Z,7.00
2023-05-05T17:58:28.651Z,6.97
2023-05-05T18:01:33.951Z,6.96
2023-05-05T18:04:39.083Z,6.77
2023-05-05T18:07:44.591Z,6.87
2023-05-05T18:10:51.149Z,6.89
2023-05-05T18:13:56.811Z,6.76
2023-05-05T18:17:01.870Z,6.73
2023-05-05T18:20:08.102Z,6.54
2023-05-05T18:23:13.550Z,6.63
2023-05-05T18:26:20.117Z,6.55
2023-05-05T18:29:25.520Z,6.53
2023-05-05T18:32:30.808Z,6.57
2023-05-05T18:35:35.929Z,6.40
2023-05-05T18:38:41.322Z,6.45
2023-05-05T18:41:47.830Z,6.40
2023-05-05T18:44:52.918Z,6.34
2023-05-05T18:47:58.551Z,6.17
2023-05-05T18:51:04.667Z,6.16
2023-05-05T18:54:09.821Z,6.11
2023-05-05T18:57:16.366Z,6.14
2023-05-05T19:00:21.930Z,6.03
2023-05-05T19:03:27.168Z,6.12
2023-05-05T19:06:32.451Z,6.14
2023-05-05T19:09:37.532Z,5.79
2023-05-05T19:12:44.499Z,5.99
2023-05-05T19:15:50.262Z,5.92
2023-05-05T19:18:58.782Z,5.87
2023-05-05T19:22:04.103Z,5.69
2023-05-05T19:25:10.107Z,5.77
2023-05-05T19:28:16.765Z,5.80
2023-05-05T19:31:22.115Z,5.89
2023-05-05T19:34:27.322Z,5.67
2023-05-05T19:37:32.427Z,5.75
2023-05-05T19:40:38.061Z,5.69
2023-05-05T19:43:46.317Z,5.67
2023-05-05T19:46:51.389Z,5.66
2023-05-05T19:49:56.740Z,5.54
2023-05-05T19:53:01.915Z,5.58
2023-05-05T19:56:07.810Z,5.61
2023-05-05T19:59:14.549Z,5.50
2023-05-05T20:02:21.996Z,5.25
2023-05-05T20:05:27.212Z,5.18
2023-05-05T20:08:32.226Z,5.16
2023-05-05T20:11:38.240Z,5.11
2023-05-05T20:14:44.731Z,5.39
2023-05-05T20:17:50.235Z,5.55
2023-05-05T20:20:55.336Z,5.37
2023-05-05T20:24:01.137Z,5.28
2023-05-05T20:27:06.428Z,4.96
2023-05-05T20:30:14.530Z,5.35
2023-05-05T20:33:20.169Z,5.16
2023-05-05T20:36:26.329Z,5.29
2023-05-05T20:39:31.495Z,5.23
2023-05-05T20:42:37.043Z,5.35
2023-05-05T20:45:43.447Z,5.26
2023-05-05T20:48:48.487Z,5.09
2023-05-05T20:51:53.694Z,5.07
2023-05-05T20:54:58.807Z,4.78
2023-05-05T20:58:03.868Z,4.81
2023-05-05T21:01:10.504Z,5.03
2023-05-05T21:04:15.729Z,5.04
2023-05-05T21:07:20.817Z,4.97
2023-05-05T21:10:26.131Z,5.08
2023-05-05T21:13:32.094Z,4.96
2023-05-05T21:16:38.625Z,5.05
2023-05-05T21:19:43.852Z,5.06
2023-05-05T21:22:48.902Z,4.87
2023-05-05T21:25:54.017Z,4.79
2023-05-05T21:28:59.157Z,4.88
2023-05-05T21:32:05.869Z,4.91
2023-05-05T21:35:12.006Z,4.95
2023-05-05T21:38:17.052Z,4.55
2023-05-05T21:41:22.186Z,4.56
2023-05-05T21:44:28.318Z,4.71
2023-05-05T21:47:35.218Z,4.70
2023-05-05T21:50:40.325Z,4.52
2023-05-05T21:53:45.639Z,4.65
2023-05-05T21:56:50.886Z,4.41
2023-05-05T21:59:56.234Z,4.52
2023-05-05T22:03:03.446Z,4.54
2023-05-05T22:06:08.780Z,4.63
2023-05-05T22:09:13.923Z,4.41
2023-05-05T22:12:18.959Z,4.41
2023-05-05T22:15:27.666Z,4.54
2023-05-05T22:18:36.573Z,4.53
2023-05-05T22:21:41.718Z,4.48
2023-05-05T22:24:46.666Z,4.46
2023-05-05T22:27:51.683Z,4.40
2023-05-05T22:30:56.970Z,4.44
2023-05-05T22:34:03.823Z,4.39
2023-05-05T22:37:08.866Z,4.34
2023-05-05T22:40:15.142Z,4.35
2023-05-05T22:43:20.206Z,4.41
2023-05-05T22:46:25.356Z,4.26
2023-05-05T22:49:32.058Z,4.23
2023-05-05T22:52:37.167Z,4.18
2023-05-05T22:55:42.203Z,4.32
2023-05-05T22:58:47.658Z,4.31
2023-05-05T23:01:52.816Z,4.20
2023-05-05T23:04:59.289Z,4.23
2023-05-05T23:08:04.395Z,4.30
2023-05-05T23:11:09.522Z,4.20
2023-05-05T23:14:14.713Z,4.26
2023-05-05T23:17:19.846Z,4.23
2023-05-05T23:20:26.655Z,4.14
2023-05-05T23:23:32.277Z,4.22
2023-05-05T23:26:37.313Z,4.13
2023-05-05T23:29:42.414Z,4.02
2023-05-05T23:32:47.570Z,3.97
2023-05-05T23:35:54.402Z,3.97
2023-05-05T23:38:59.396Z,3.81
2023-05-05T23:42:04.405Z,3.93
2023-05-05T23:45:12.278Z,3.72
2023-05-05T23:48:17.653Z,3.60
2023-05-05T23:51:24.189Z,3.72
2023-05-05T23:54:29.210Z,3.73
2023-05-05T23:57:35.399Z,3.81
